createdAt,value
2018-12-17T00:01:35.690Z,96793.62
2018-12-17T00:06:29.095Z,96787.87
2018-12-17T00:11:22.471Z,96789.59
2018-12-17T00:16:15.766Z,96782.39
2018-12-17T00:21:09.212Z,96782.98
2018-12-17T00:42:16.799Z,96797.52
2018-12-17T00:47:10.140Z,96803.30
2018-12-17T00:52:03.449Z,96815.59
2018-12-17T00:56:56.796Z,96822.72
2018-12-17T01:01:50.149Z,96819.52
2018-12-17T01:06:43.418Z,96825.57
2018-12-17T01:11:36.770Z,96825.25
2018-12-17T01:16:30.035Z,96823.76
2018-12-17T01:21:23.393Z,96835.13
2018-12-17T01:42:31.013Z,96864.03
2018-12-17T01:47:24.334Z,96869.34
2018-12-17T01:52:17.634Z,96874.25
2018-12-17T01:57:10.952Z,96877.81
2018-12-17T02:02:04.417Z,96884.28
2018-12-17T02:06:57.695Z,96892.38
2018-12-17T02:11:51.054Z,96886.96
2018-12-17T02:16:44.330Z,96881.59
2018-12-17T02:21:37.675Z,96885.53
2018-12-17T02:42:45.565Z,96902.36
2018-12-17T02:47:38.945Z,96902.95
2018-12-17T02:52:32.250Z,96901.22
2018-12-17T02:57:25.530Z,96902.86
2018-12-17T03:02:18.883Z,96910.81
2018-12-17T03:07:12.172Z,96924.09
2018-12-17T03:12:05.594Z,96925.44
2018-12-17T03:16:58.875Z,96925.52
2018-12-17T03:21:52.144Z,96926.86
2018-12-17T03:43:00.171Z,96966.03
2018-12-17T03:47:53.612Z,96976.89
2018-12-17T03:52:46.891Z,96982.03
2018-12-17T03:57:40.162Z,96989.77
2018-12-17T04:02:33.479Z,96990.27
2018-12-17T04:07:26.822Z,96999.65
2018-12-17T04:12:20.122Z,97009.51
2018-12-17T04:17:13.409Z,97005.94
2018-12-17T04:22:06.703Z,97027.48
2018-12-17T04:43:14.213Z,97066.91
2018-12-17T04:48:07.578Z,97062.47
2018-12-17T04:53:00.870Z,97073.34
2018-12-17T04:57:54.207Z,97089.37
2018-12-17T05:02:47.542Z,97089.25
2018-12-17T05:07:40.818Z,97103.82
2018-12-17T05:12:34.115Z,97108.66
2018-12-17T05:17:27.407Z,97115.77
2018-12-17T05:22:20.707Z,97122.42
2018-12-17T05:43:28.070Z,97156.09
2018-12-17T05:48:21.451Z,97163.52
2018-12-17T05:53:14.913Z,97171.46
2018-12-17T05:58:08.297Z,97174.52
2018-12-17T06:03:01.608Z,97178.73
2018-12-17T06:07:54.918Z,97197.00
2018-12-17T06:12:48.307Z,97206.38
2018-12-17T06:17:41.630Z,97213.00
2018-12-17T06:22:34.926Z,97217.53
2018-12-17T06:43:42.713Z,97245.14
2018-12-17T06:48:36.138Z,97252.12
2018-12-17T06:53:29.451Z,97263.75
2018-12-17T06:58:23.473Z,97269.90
2018-12-17T07:03:16.806Z,97268.91
2018-12-17T07:08:10.165Z,97269.89
2018-12-17T07:13:04.088Z,97285.75
2018-12-17T07:17:57.519Z,97296.13
2018-12-17T07:22:50.981Z,97308.42
2018-12-17T07:43:58.780Z,97347.87
2018-12-17T07:48:52.087Z,97354.31
2018-12-17T07:53:45.394Z,97367.94
2018-12-17T07:58:38.869Z,97374.05
2018-12-17T08:03:32.187Z,97381.64
2018-12-17T08:08:25.454Z,97391.23
2018-12-17T08:13:19.051Z,97408.40
2018-12-17T08:18:28.204Z,97428.17
2018-12-17T08:23:21.693Z,97431.09
2018-12-17T08:44:30.202Z,97468.08
2018-12-17T08:49:23.548Z,97471.31
2018-12-17T08:54:17.073Z,97476.67
2018-12-17T08:59:12.637Z,97478.30
2018-12-17T09:04:09.985Z,97494.65
2018-12-17T09:09:11.865Z,97495.32
2018-12-17T09:14:14.387Z,97506.31
2018-12-17T09:19:19.046Z,97521.73
2018-12-17T09:24:17.561Z,97529.64
2018-12-17T09:45:25.811Z,97549.11
2018-12-17T09:50:19.183Z,97549.10
2018-12-17T09:55:12.858Z,97544.87
2018-12-17T10:00:08.176Z,97548.78
2018-12-17T10:05:01.456Z,97551.66
2018-12-17T10:26:09.510Z,97560.02
2018-12-17T10:31:03.336Z,97564.61
2018-12-17T10:35:56.808Z,97564.94
2018-12-17T10:40:50.087Z,97561.81
2018-12-17T10:45:43.487Z,97567.36
2018-12-17T11:06:51.840Z,97566.98
2018-12-17T11:11:45.242Z,97548.69
2018-12-17T11:16:38.584Z,97550.72
2018-12-17T11:21:32.567Z,97546.78
2018-12-17T11:42:39.502Z,97550.27
2018-12-17T11:47:32.823Z,97557.05
2018-12-17T11:52:26.122Z,97549.06
2018-12-17T12:02:41.318Z,97555.92
2018-12-17T12:07:34.760Z,97551.55
2018-12-17T12:12:28.135Z,97555.51
2018-12-17T12:17:21.436Z,97554.14
2018-12-17T12:22:14.791Z,97557.95
2018-12-17T12:43:22.108Z,97568.54
2018-12-17T12:48:15.560Z,97559.73
2018-12-17T12:53:08.966Z,97557.28
2018-12-17T12:58:03.742Z,97570.09
2018-12-17T13:02:57.879Z,97572.82
2018-12-17T13:24:05.380Z,97598.83
2018-12-17T13:28:59.258Z,97600.00
2018-12-17T13:33:52.944Z,97600.20
2018-12-17T13:38:46.376Z,97610.17
2018-12-17T13:43:39.787Z,97607.87
2018-12-17T13:59:22.859Z,97648.86
2018-12-17T14:04:16.296Z,97651.45
2018-12-17T14:09:09.683Z,97658.55
2018-12-17T14:14:03.147Z,97658.42
2018-12-17T14:35:10.366Z,97692.30
2018-12-17T14:40:07.667Z,97693.08
2018-12-17T14:45:01.070Z,97707.28
2018-12-17T14:49:54.565Z,97714.81
2018-12-17T14:54:47.974Z,97728.17
2018-12-17T14:59:54.427Z,97731.50
2018-12-17T15:37:07.696Z,97805.57
2018-12-17T15:42:01.022Z,97820.24
2018-12-17T15:46:54.298Z,97826.24
2018-12-17T15:51:47.596Z,97830.95
2018-12-17T15:56:40.917Z,97834.70
2018-12-17T16:01:34.196Z,97832.60
2018-12-17T16:06:27.668Z,97835.05
2018-12-17T16:11:21.681Z,97842.20
2018-12-17T16:16:15.118Z,97843.01
2018-12-17T16:37:23.997Z,97847.45
2018-12-17T16:42:17.270Z,97851.36
2018-12-17T16:47:23.822Z,97858.83
2018-12-17T16:52:24.931Z,97867.15
2018-12-17T17:40:07.537Z,97924.38
2018-12-17T17:45:17.568Z,97931.88
2018-12-17T17:50:23.570Z,97937.70
2018-12-17T17:55:28.479Z,97948.57
2018-12-17T18:00:32.901Z,97948.06
2018-12-17T18:05:34.400Z,97954.23
2018-12-17T18:37:30.977Z,98001.94
2018-12-17T18:53:28.535Z,98007.09
2018-12-17T19:09:22.201Z,98038.94
2018-12-17T19:14:29.086Z,98037.02
2018-12-17T19:19:41.719Z,98042.92
2018-12-17T19:24:46.710Z,98042.13
2018-12-17T19:46:04.420Z,98044.76
2018-12-17T19:56:17.835Z,98054.86
2018-12-17T20:01:22.534Z,98061.52
2018-12-17T20:22:39.722Z,98048.52
2018-12-17T20:32:53.512Z,98056.63
2018-12-17T20:37:55.005Z,98053.55
2018-12-17T20:53:47.534Z,98068.02
2018-12-17T20:58:53.079Z,98080.02
2018-12-17T21:04:00.692Z,98078.02
2018-12-17T21:09:05.214Z,98077.05
2018-12-17T21:30:31.674Z,98082.11
2018-12-17T21:35:33.850Z,98087.98
2018-12-17T21:40:36.233Z,98088.57
2018-12-17T21:45:39.973Z,98096.75
2018-12-17T21:50:46.517Z,98096.86
2018-12-17T21:55:52.824Z,98095.52
2018-12-17T22:06:18.611Z,98087.95
2018-12-17T22:11:21.725Z,98096.48
2018-12-17T22:47:55.405Z,98102.36
2018-12-17T22:53:02.653Z,98100.31
2018-12-17T22:58:08.222Z,98101.52
2018-12-17T23:03:12.396Z,98103.42
2018-12-17T23:08:15.485Z,98099.95
2018-12-17T23:13:32.852Z,98094.63
2018-12-17T23:34:50.797Z,98086.88
2018-12-17T23:39:57.755Z,98074.97
2018-12-17T23:45:01.035Z,98074.30
2018-12-17T23:50:03.160Z,98065.55
2018-12-17T23:55:05.919Z,98070.75
